Terminal Aerodrome Forecast
Issued by NWS Amarillo, TX

Home | Current Version | Previous Version | Text Only | Print | Product List | Glossary On
Versions: 1 2 3 4 5 6 7 8 9 10 11 12 13 14 15 16
000
FTUS44 KAMA 030500
TAFAMA
TAF
KAMA 030539Z 0306/0406 19014KT P6SM SCT100 OVC300
     FM031500 20018G28KT P6SM SCT080 SCT300
     FM040000 16016G23KT P6SM BKN080 OVC300=

USA.gov is the U.S. government's official web portal to all federal, state and local government web resources and services.